.
WxDataArchive / Data Records for 2007-12-25
2007-12-24 December 2007 2007-12-26

Data Records for Tuesday, 25 December 2007

Time	Temp	Chill	HIndex	Humid	Dewpt	 Wind 	HiWind	WindDir	Rain 	Barom 
-----	----	-----	------	-----	-----	------	------	-------	-----	----- 
00:00	27.9	27.9	27.9	77	21.6	0	3	248	0.00	30.134 
00:05	27.9	27.9	27.9	77	21.6	0	2	248	0.00	30.134 
00:10	27.9	27.9	27.9	77	21.6	0	3	248	0.00	30.137 
00:15	27.9	27.9	27.9	77	21.6	0	3	248	0.00	30.142 
00:20	27.9	27.9	27.9	77	21.6	0	1	248	0.00	30.141 
00:25	27.9	27.9	27.9	77	21.6	1	3	248	0.00	30.135 
00:30	28.1	28.1	28.1	78	22.1	0	4	248	0.00	30.134 
00:35	28.1	28.1	28.1	77	21.8	1	6	248	0.00	30.134 
00:40	28.1	28.1	28.1	77	21.8	2	5	248	0.00	30.136 
00:45	28.1	28.1	28.1	77	21.8	1	4	248	0.00	30.135 
00:50	27.9	27.9	27.9	77	21.6	2	5	248	0.00	30.132 
00:55	27.9	27.9	27.9	77	21.6	3	8	248	0.00	30.128 
01:00	27.9	27.9	27.9	77	21.6	1	4	248	0.00	30.131 
01:05	27.9	27.9	27.9	77	21.6	1	5	270	0.00	30.132 
01:10	27.9	27.9	27.9	77	21.6	1	4	248	0.00	30.130 
01:15	27.9	27.9	27.9	77	21.6	2	6	248	0.00	30.129 
01:20	27.9	27.9	27.9	77	21.6	2	9	270	0.00	30.130 
01:25	27.9	27.9	27.9	77	21.6	2	7	248	0.00	30.131 
01:30	27.9	27.9	27.9	77	21.6	3	10	248	0.00	30.131 
01:35	27.9	27.9	27.9	77	21.6	1	6	270	0.00	30.133 
01:40	27.9	27.9	27.9	77	21.6	1	5	270	0.00	30.133 
01:45	27.9	27.9	27.9	77	21.6	1	5	248	0.00	30.136 
01:50	27.9	27.9	27.9	78	21.9	1	4	248	0.00	30.136 
01:55	27.9	27.9	27.9	78	21.9	0	3	248	0.00	30.140 
02:00	27.9	27.9	27.9	78	21.9	1	5	248	0.00	30.143 
02:05	27.9	27.9	27.9	78	21.9	1	5	248	0.00	30.146 
02:10	27.9	27.9	27.9	78	21.9	2	7	270	0.00	30.147 
02:15	27.9	27.9	27.9	78	21.9	2	7	248	0.00	30.150 
02:20	27.9	27.9	27.9	78	21.9	0	2	248	0.00	30.154 
02:25	27.9	27.9	27.9	78	21.9	0	2	248	0.00	30.157 
02:30	27.9	27.9	27.9	79	22.2	1	4	248	0.00	30.156 
02:35	27.9	27.9	27.9	79	22.2	1	5	248	0.00	30.158 
02:40	27.9	27.9	27.9	79	22.2	2	7	248	0.00	30.159 
02:45	27.9	27.9	27.9	79	22.2	1	4	248	0.00	30.163 
02:50	27.8	27.8	27.8	79	22.2	1	6	248	0.00	30.164 
02:55	27.8	27.8	27.8	79	22.2	1	4	248	0.00	30.167 
03:00	27.8	27.8	27.8	79	22.2	0	2	248	0.00	30.168 
03:05	27.8	27.8	27.8	80	22.4	1	3	248	0.00	30.169 
03:10	27.8	27.8	27.8	80	22.4	1	7	248	0.00	30.170 
03:15	27.8	27.8	27.8	80	22.4	1	4	248	0.00	30.172 
03:20	27.8	27.8	27.8	80	22.4	0	2	248	0.00	30.173 
03:25	27.8	27.8	27.8	80	22.4	0	1	248	0.00	30.176 
03:30	27.8	27.8	27.8	80	22.4	0	3	248	0.00	30.176 
03:35	27.8	27.8	27.8	81	22.7	1	3	248	0.00	30.177 
03:40	27.8	27.8	27.8	81	22.7	0	1	248	0.00	30.173 
03:45	27.8	27.8	27.8	81	22.7	1	5	248	0.00	30.170 
03:50	27.6	27.6	27.6	81	22.5	1	3	248	0.00	30.170 
03:55	27.6	27.6	27.6	81	22.5	1	4	248	0.00	30.164 
04:00	27.6	27.6	27.6	81	22.5	1	4	248	0.00	30.164 
04:05	27.6	27.6	27.6	81	22.5	1	3	248	0.00	30.163 
04:10	27.5	27.5	27.5	81	22.4	1	5	248	0.00	30.163 
04:15	27.5	27.5	27.5	81	22.4	0	2	248	0.00	30.163 
04:20	27.5	27.5	27.5	82	22.7	0	1	248	0.00	30.162 
04:25	27.5	27.5	27.5	82	22.7	0	3	315	0.00	30.163 
04:30	27.5	27.5	27.5	82	22.7	0	1	315	0.00	30.166 
04:35	27.5	27.5	27.5	82	22.7	0	1	315	0.00	30.166 
04:40	27.5	27.5	27.5	82	22.7	0	1	315	0.00	30.166 
04:45	27.5	27.5	27.5	82	22.7	0	1	315	0.00	30.167 
04:50	27.5	27.5	27.5	82	22.7	1	5	248	0.00	30.167 
04:55	27.5	27.5	27.5	82	22.7	1	4	248	0.00	30.171 
05:00	27.3	27.3	27.3	82	22.5	1	5	248	0.00	30.176 
05:05	27.3	27.3	27.3	82	22.5	0	1	248	0.00	30.178 
05:10	27.3	27.3	27.3	82	22.5	0	1	248	0.00	30.178 
05:15	27.3	27.3	27.3	82	22.5	0	1	248	0.00	30.178 
05:20	27.3	27.3	27.3	82	22.5	0	3	248	0.00	30.178 
05:25	27.3	27.3	27.3	82	22.5	1	5	248	0.00	30.177 
05:30	27.3	27.3	27.3	82	22.5	1	3	270	0.00	30.177 
05:35	27.3	27.3	27.3	82	22.5	0	1	270	0.00	30.178 
05:40	27.2	27.2	27.2	82	22.4	0	1	270	0.00	30.179 
05:45	27.2	27.2	27.2	82	22.4	0	2	270	0.00	30.181 
05:50	27.2	27.2	27.2	82	22.4	0	2	248	0.00	30.181 
05:55	27.2	27.2	27.2	82	22.4	1	2	248	0.00	30.181 
06:00	27.2	27.2	27.2	82	22.4	0	2	248	0.00	30.183 
06:05	27.2	27.2	27.2	82	22.4	1	3	248	0.00	30.185 
06:10	27.2	27.2	27.2	82	22.4	1	5	248	0.00	30.186 
06:15	27.2	27.2	27.2	82	22.4	1	3	248	0.00	30.186 
06:20	27.2	27.2	27.2	82	22.4	1	4	248	0.00	30.185 
06:25	27.2	27.2	27.2	83	22.7	1	3	248	0.00	30.182 
06:30	27.3	27.3	27.3	83	22.8	0	1	248	0.00	30.184 
06:35	27.3	27.3	27.3	83	22.8	1	3	248	0.00	30.187 
06:40	27.3	27.3	27.3	83	22.8	1	5	248	0.00	30.190 
06:45	27.2	27.2	27.2	83	22.7	1	3	248	0.00	30.193 
06:50	27.2	27.2	27.2	83	22.7	0	3	248	0.00	30.195 
06:55	27.2	27.2	27.2	83	22.7	0	3	248	0.00	30.196 
07:00	27.2	27.2	27.2	83	22.7	1	3	248	0.00	30.198 
07:05	27.3	27.3	27.3	83	22.8	0	3	248	0.00	30.200 
07:10	27.2	27.2	27.2	83	22.7	1	3	248	0.00	30.208 
07:15	27.2	27.2	27.2	82	22.4	1	5	248	0.00	30.209 
07:20	27.2	27.2	27.2	82	22.4	0	3	248	0.00	30.208 
07:25	27.2	27.2	27.2	82	22.4	0	2	248	0.00	30.210 
07:30	27.2	27.2	27.2	83	22.7	1	4	248	0.00	30.212 
07:35	27.0	27.0	27.0	82	22.3	2	6	248	0.00	30.214 
07:40	27.0	27.0	27.0	82	22.3	2	7	248	0.00	30.220 
07:45	26.9	26.9	26.9	83	22.4	1	3	248	0.00	30.223 
07:50	26.9	26.9	26.9	83	22.4	1	3	248	0.00	30.225 
07:55	26.9	26.9	26.9	83	22.4	0	2	248	0.00	30.225 
08:00	26.9	26.9	26.9	83	22.4	0	3	248	0.00	30.226 
08:05	26.9	26.9	26.9	83	22.4	1	3	270	0.00	30.228 
08:10	27.0	27.0	27.0	83	22.5	0	2	270	0.00	30.228 
08:15	27.0	27.0	27.0	84	22.8	0	2	270	0.00	30.229 
08:20	27.0	27.0	27.0	84	22.8	0	1	270	0.00	30.231 
08:25	27.0	27.0	27.0	84	22.8	0	1	270	0.00	30.234 
08:30	27.2	27.2	27.2	84	23.0	0	1	270	0.00	30.235 
08:35	27.2	27.2	27.2	84	23.0	0	2	270	0.00	30.238 
08:40	27.2	27.2	27.2	84	23.0	0	2	270	0.00	30.238 
08:45	27.2	27.2	27.2	84	23.0	1	4	248	0.00	30.241 
08:50	27.2	27.2	27.2	84	23.0	1	4	248	0.00	30.241 
08:55	27.2	27.2	27.2	84	23.0	1	3	248	0.00	30.243 
09:00	27.2	27.2	27.2	84	23.0	1	3	248	0.00	30.243 
09:05	27.2	27.2	27.2	84	23.0	1	3	248	0.00	30.242 
09:10	27.2	27.2	27.2	84	23.0	0	2	248	0.00	30.243 
09:15	27.2	27.2	27.2	84	23.0	1	3	248	0.00	30.242 
09:20	27.2	27.2	27.2	84	23.0	0	2	248	0.00	30.243 
09:25	27.2	27.2	27.2	84	23.0	1	3	248	0.00	30.243 
09:30	27.2	27.2	27.2	84	23.0	0	3	248	0.00	30.242 
09:35	27.2	27.2	27.2	83	22.7	1	4	248	0.00	30.242 
09:40	27.0	27.0	27.0	84	22.8	0	3	248	0.00	30.244 
09:45	27.0	27.0	27.0	84	22.8	1	4	248	0.00	30.245 
09:50	27.0	27.0	27.0	84	22.8	1	4	248	0.00	30.246 
09:55	27.2	27.2	27.2	84	23.0	0	3	248	0.00	30.248 
10:00	27.2	27.2	27.2	84	23.0	1	4	248	0.00	30.250 
10:05	27.3	27.3	27.3	84	23.1	1	5	270	0.00	30.250 
10:10	27.3	27.3	27.3	84	23.1	1	3	248	0.00	30.253 
10:15	27.5	27.5	27.5	84	23.3	1	2	270	0.00	30.252 
10:20	27.6	27.6	27.6	84	23.4	0	2	270	0.00	30.254 
10:25	27.8	27.8	27.8	84	23.6	0	3	270	0.00	30.253 
10:30	27.8	27.8	27.8	84	23.6	1	2	270	0.00	30.255 
10:35	27.9	27.9	27.9	84	23.7	0	2	270	0.00	30.255 
10:40	28.1	28.1	28.1	83	23.6	0	1	270	0.00	30.255 
10:45	28.4	28.4	28.4	83	23.9	0	2	270	0.00	30.255 
10:50	28.4	28.4	28.4	83	23.9	0	2	248	0.00	30.256 
10:55	28.5	28.5	28.5	82	23.7	0	1	248	0.00	30.256 
11:00	28.5	28.5	28.5	82	23.7	1	4	248	0.00	30.257 
11:05	28.5	28.5	28.5	82	23.7	1	4	90	0.00	30.257 
11:10	28.8	28.8	28.8	82	24.0	1	4	248	0.00	30.257 
11:15	29.1	29.1	29.1	81	24.0	1	3	225	0.00	30.257 
11:20	29.4	29.4	29.4	81	24.3	0	1	225	0.00	30.256 
11:25	29.4	29.4	29.4	79	23.7	0	2	225	0.00	30.254 
11:30	29.4	29.4	29.4	78	23.4	1	5	248	0.00	30.251 
11:35	29.4	29.4	29.4	77	23.1	2	5	248	0.00	30.246 
11:40	29.7	29.7	29.7	77	23.4	1	4	270	0.00	30.242 
11:45	30.0	30.0	30.0	76	23.4	1	2	225	0.00	30.239 
11:50	30.3	30.3	30.3	76	23.7	1	4	248	0.00	30.238 
11:55	30.6	30.6	30.6	75	23.6	1	2	270	0.00	30.235 
12:00	30.7	30.7	30.7	74	23.4	0	3	270	0.00	30.230 
12:05	30.9	30.9	30.9	74	23.6	1	3	248	0.00	30.228 
12:10	31.2	31.2	31.2	73	23.6	1	3	0	0.00	30.226 
12:15	31.5	31.5	31.5	73	23.9	1	3	248	0.00	30.224 
12:20	31.8	31.8	31.8	72	23.8	1	3	338	0.00	30.222 
12:25	32.1	32.1	32.1	71	23.8	1	4	248	0.00	30.222 
12:30	32.2	32.2	32.2	71	23.9	1	5	248	0.00	30.221 
12:35	32.5	32.5	32.5	71	24.2	1	3	315	0.00	30.221 
12:40	32.7	32.7	32.7	70	24.0	1	5	248	0.00	30.220 
12:45	32.8	32.8	32.8	70	24.1	1	5	248	0.00	30.217 
12:50	32.9	32.9	32.9	70	24.2	1	4	270	0.00	30.218 
12:55	33.4	33.4	33.4	70	24.7	1	3	270	0.00	30.217 
13:00	33.5	33.5	33.5	69	24.4	1	2	292	0.00	30.210 
13:05	33.5	33.5	33.5	69	24.4	0	2	292	0.00	30.206 
13:10	33.7	33.7	33.7	69	24.6	0	2	292	0.00	30.204 
13:15	34.0	34.0	34.0	69	24.9	0	2	292	0.00	30.202 
13:20	34.3	34.3	34.3	68	24.9	0	1	292	0.00	30.203 
13:25	34.4	34.4	34.4	67	24.6	0	2	292	0.00	30.201 
13:30	34.4	34.4	34.4	67	24.6	0	2	292	0.00	30.201 
13:35	34.7	34.7	34.7	66	24.5	1	3	292	0.00	30.199 
13:40	34.9	34.9	34.9	65	24.3	1	3	248	0.00	30.197 
13:45	35.2	35.2	35.2	66	25.0	1	4	248	0.00	30.197 
13:50	35.5	35.5	35.5	65	24.9	1	3	248	0.00	30.195 
13:55	35.8	35.8	35.8	65	25.2	0	1	248	0.00	30.195 
14:00	36.0	36.0	36.0	63	24.6	1	4	248	0.00	30.193 
14:05	35.9	35.9	35.9	63	24.5	0	2	248	0.00	30.192 
14:10	36.2	36.2	36.2	63	24.8	0	2	248	0.00	30.190 
14:15	36.3	36.3	36.3	62	24.5	0	2	248	0.00	30.188 
14:20	36.6	36.6	36.6	62	24.8	0	2	248	0.00	30.189 
14:25	36.6	36.6	36.6	62	24.8	1	3	112	0.00	30.189 
14:30	36.8	36.8	36.8	62	25.0	1	3	112	0.00	30.192 
14:35	36.9	36.9	36.9	61	24.7	0	3	112	0.00	30.192 
14:40	36.9	36.9	36.9	61	24.7	0	2	112	0.00	30.189 
14:45	37.2	37.2	37.2	62	25.4	0	2	112	0.00	30.188 
14:50	37.5	37.5	37.5	61	25.3	0	2	225	0.00	30.187 
14:55	37.3	37.3	37.3	60	24.7	1	5	135	0.00	30.189 
15:00	37.5	37.5	37.5	62	25.7	0	2	292	0.00	30.187 
15:05	37.5	37.5	37.5	61	25.3	1	2	0	0.00	30.187 
15:10	37.3	37.3	37.3	62	25.5	1	4	112	0.00	30.188 
15:15	37.2	37.2	37.2	63	25.8	1	3	112	0.00	30.189 
15:20	37.3	37.3	37.3	63	25.9	1	3	248	0.00	30.190 
15:25	37.2	37.2	37.2	63	25.8	1	3	248	0.00	30.189 
15:30	37.0	37.0	37.0	63	25.6	1	3	112	0.00	30.190 
15:35	37.2	37.2	37.2	64	26.2	1	3	270	0.00	30.191 
15:40	37.2	37.2	37.2	64	26.2	0	2	22	0.00	30.191 
15:45	37.2	37.2	37.2	64	26.2	0	2	22	0.00	30.191 
15:50	37.0	37.0	37.0	64	26.0	1	2	22	0.00	30.192 
15:55	36.9	36.9	36.9	64	25.9	1	2	22	0.00	30.190 
16:00	36.6	36.6	36.6	64	25.6	1	3	135	0.00	30.192 
16:05	36.6	36.6	36.6	64	25.6	0	1	135	0.00	30.192 
16:10	36.5	36.5	36.5	65	25.9	0	2	135	0.00	30.193 
16:15	36.5	36.5	36.5	65	25.9	0	2	135	0.00	30.192 
16:20	36.2	36.2	36.2	65	25.6	0	2	135	0.00	30.193 
16:25	36.2	36.2	36.2	65	25.6	0	2	135	0.00	30.194 
16:30	36.0	36.0	36.0	66	25.8	0	1	135	0.00	30.195 
16:35	36.0	36.0	36.0	66	25.8	0	1	135	0.00	30.195 
16:40	35.9	35.9	35.9	67	26.0	0	2	135	0.00	30.195 
16:45	35.8	35.8	35.8	68	26.3	0	2	135	0.00	30.194 
16:50	35.5	35.5	35.5	68	26.0	0	1	135	0.00	30.196 
16:55	35.3	35.3	35.3	69	26.2	0	3	135	0.00	30.194 
17:00	35.0	35.0	35.0	69	25.9	0	2	270	0.00	30.195 
17:05	34.7	34.7	34.7	69	25.6	0	0	---	0.00	30.195 
17:10	34.4	34.4	34.4	70	25.6	0	1	270	0.00	30.196 
17:15	34.0	34.0	34.0	71	25.6	0	0	---	0.00	30.197 
17:20	33.5	33.5	33.5	71	25.1	0	0	---	0.00	30.196 
17:25	33.2	33.2	33.2	72	25.2	0	0	---	0.00	30.197 
17:30	32.8	32.8	32.8	73	25.1	0	0	---	0.00	30.197 
17:35	32.4	32.4	32.4	74	25.1	0	0	---	0.00	30.194 
17:40	32.1	32.1	32.1	75	25.1	0	1	270	0.00	30.197 
17:45	31.6	31.6	31.6	76	24.9	0	0	---	0.00	30.193 
17:50	31.2	31.2	31.2	76	24.5	0	0	---	0.00	30.193 
17:55	30.9	30.9	30.9	77	24.6	0	0	---	0.00	30.195 
18:00	30.4	30.4	30.4	78	24.4	0	0	---	0.00	30.193 
18:05	30.1	30.1	30.1	79	24.4	0	0	---	0.00	30.194 
18:10	29.8	29.8	29.8	80	24.4	0	0	---	0.00	30.194 
18:15	29.5	29.5	29.5	81	24.4	0	0	---	0.00	30.196 
18:20	29.3	29.3	29.3	81	24.2	0	0	---	0.00	30.195 
18:25	29.1	29.1	29.1	82	24.3	0	0	---	0.00	30.195 
18:30	28.8	28.8	28.8	83	24.3	0	1	270	0.00	30.195 
18:35	28.7	28.7	28.7	83	24.2	0	0	---	0.00	30.194 
18:40	28.4	28.4	28.4	84	24.2	0	0	---	0.00	30.194 
18:45	28.2	28.2	28.2	84	24.0	0	0	---	0.00	30.195 
18:50	28.1	28.1	28.1	84	23.9	0	0	---	0.00	30.193 
18:55	27.9	27.9	27.9	85	24.0	0	0	---	0.00	30.193 
19:00	27.8	27.8	27.8	85	23.9	0	0	---	0.00	30.194 
19:05	27.5	27.5	27.5	85	23.6	0	0	---	0.00	30.195 
19:10	27.5	27.5	27.5	86	23.9	0	0	---	0.00	30.197 
19:15	27.3	27.3	27.3	86	23.7	0	0	---	0.00	30.196 
19:20	27.2	27.2	27.2	86	23.6	0	0	---	0.00	30.196 
19:25	27.0	27.0	27.0	87	23.7	0	0	---	0.00	30.196 
19:30	26.9	26.9	26.9	87	23.6	0	0	---	0.00	30.195 
19:35	26.6	26.6	26.6	87	23.3	0	0	---	0.00	30.192 
19:40	26.4	26.4	26.4	87	23.1	0	0	---	0.00	30.194 
19:45	26.3	26.3	26.3	88	23.2	0	0	---	0.00	30.196 
19:50	26.1	26.1	26.1	88	23.0	0	0	---	0.00	30.195 
19:55	26.0	26.0	26.0	88	22.9	0	0	---	0.00	30.193 
20:00	25.8	25.8	25.8	88	22.7	0	0	---	0.00	30.191 
20:05	25.8	25.8	25.8	88	22.7	0	0	---	0.00	30.189 
20:10	25.6	25.6	25.6	88	22.5	0	0	---	0.00	30.186 
20:15	25.6	25.6	25.6	89	22.8	0	0	---	0.00	30.184 
20:20	25.6	25.6	25.6	89	22.8	0	1	270	0.00	30.182 
20:25	25.6	25.6	25.6	89	22.8	0	0	---	0.00	30.182 
20:30	25.4	25.4	25.4	89	22.6	0	0	---	0.00	30.182 
20:35	25.4	25.4	25.4	90	22.9	0	0	---	0.00	30.182 
20:40	25.4	25.4	25.4	90	22.9	0	0	---	0.00	30.181 
20:45	25.4	25.4	25.4	90	22.9	0	0	---	0.00	30.175 
20:50	25.3	25.3	25.3	90	22.8	0	0	---	0.00	30.172 
20:55	25.0	25.0	25.0	90	22.5	0	0	---	0.00	30.168 
21:00	24.8	24.8	24.8	90	22.3	0	0	---	0.00	30.166 
21:05	24.5	24.5	24.5	90	22.0	0	0	---	0.00	30.165 
21:10	24.5	24.5	24.5	90	22.0	0	0	---	0.00	30.159 
21:15	24.5	24.5	24.5	91	22.3	0	0	---	0.00	30.160 
21:20	24.4	24.4	24.4	91	22.2	0	0	---	0.00	30.162 
21:25	24.4	24.4	24.4	91	22.2	0	0	---	0.00	30.161 
21:30	24.2	24.2	24.2	91	22.0	0	0	---	0.00	30.162 
21:35	24.1	24.1	24.1	91	21.9	0	0	---	0.00	30.163 
21:40	23.9	23.9	23.9	91	21.7	0	0	---	0.00	30.163 
21:45	23.9	23.9	23.9	91	21.7	0	0	---	0.00	30.159 
21:50	23.9	23.9	23.9	91	21.7	0	0	---	0.00	30.162 
21:55	23.9	23.9	23.9	91	21.7	0	0	---	0.00	30.160 
22:00	23.8	23.8	23.8	91	21.6	0	0	---	0.00	30.161 
22:05	23.6	23.6	23.6	91	21.4	0	0	---	0.00	30.158 
22:10	23.5	23.5	23.5	91	21.3	0	0	---	0.00	30.154 
22:15	23.3	23.3	23.3	91	21.1	0	0	---	0.00	30.153 
22:20	23.2	23.2	23.2	91	21.0	0	0	---	0.00	30.154 
22:25	23.2	23.2	23.2	91	21.0	0	0	---	0.00	30.155 
22:30	23.2	23.2	23.2	92	21.2	0	0	---	0.00	30.153 
22:35	23.2	23.2	23.2	92	21.2	0	0	---	0.00	30.151 
22:40	23.0	23.0	23.0	92	21.0	0	0	---	0.00	30.151 
22:45	23.0	23.0	23.0	92	21.0	0	0	---	0.00	30.150 
22:50	23.0	23.0	23.0	92	21.0	0	0	---	0.00	30.150 
22:55	22.9	22.9	22.9	92	20.9	0	0	---	0.00	30.149 
23:00	22.9	22.9	22.9	92	20.9	0	0	---	0.00	30.150 
23:05	22.7	22.7	22.7	92	20.7	0	0	---	0.00	30.149 
23:10	22.5	22.5	22.5	92	20.5	0	0	---	0.00	30.150 
23:15	22.4	22.4	22.4	92	20.4	0	0	---	0.00	30.151 
23:20	22.4	22.4	22.4	92	20.4	0	0	---	0.00	30.151 
23:25	22.4	22.4	22.4	92	20.4	0	0	---	0.00	30.151 
23:30	22.4	22.4	22.4	92	20.4	0	0	---	0.00	30.152 
23:35	22.2	22.2	22.2	92	20.2	0	0	---	0.00	30.153 
23:40	22.1	22.1	22.1	92	20.1	0	0	---	0.00	30.153 
23:45	22.1	22.1	22.1	92	20.1	0	0	---	0.00	30.157 
23:50	22.2	22.2	22.2	92	20.2	0	0	---	0.00	30.157 
23:55	22.2	22.2	22.2	92	20.2	0	0	---	0.00	30.160 

CoCoRaHS
IN-AL-39
A2 Web Hosting
Creative Commons License
GoDaddy
Look for:

loaded 2017-12-12 01:52:07 • last modified 2010-11-18 10:43:29
Privacy PolicyDisclaimer
• wx.awcolley.com is powered by PmWiki v.2002016 •
• all content (unless otherwise noted) © 2017 A W Colley